createdAt,value
2019-02-11T06:00:35.523Z,4.30
2019-02-11T06:43:27.312Z,4.80
2019-02-11T06:45:50.747Z,4.70
2019-02-11T06:48:13.540Z,4.70
2019-02-11T07:19:52.100Z,5.30
2019-02-11T07:22:07.574Z,5.40
2019-02-11T07:24:13.176Z,5.40
2019-02-11T07:26:23.241Z,5.50
2019-02-11T07:28:36.701Z,5.60
2019-02-11T07:31:11.071Z,5.60
2019-02-11T07:33:28.027Z,5.60
2019-02-11T07:35:46.687Z,5.60
2019-02-11T07:38:13.206Z,5.70
2019-02-11T07:40:57.908Z,5.70
2019-02-11T07:43:40.160Z,5.80
2019-02-11T07:49:27.236Z,5.90
2019-02-11T07:52:16.854Z,6.00
2019-02-11T07:54:28.773Z,6.10
2019-02-11T09:39:09.066Z,7.90
2019-02-11T09:41:29.926Z,7.80
2019-02-11T09:46:18.732Z,7.60
2019-02-11T09:48:40.590Z,7.60
2019-02-11T09:51:08.901Z,7.70
2019-02-11T09:53:58.678Z,7.70
2019-02-11T09:56:19.663Z,7.90
2019-02-11T09:59:05.216Z,8.10
2019-02-11T11:16:01.108Z,8.90
2019-02-11T11:18:12.626Z,9.20
2019-02-11T11:20:23.664Z,9.70
2019-02-11T11:22:31.184Z,9.90
2019-02-11T11:24:37.492Z,9.90
2019-02-11T11:26:49.727Z,9.60
2019-02-11T11:29:07.075Z,8.00
2019-02-11T11:31:27.762Z,6.30
2019-02-11T11:33:42.867Z,5.40
2019-02-11T11:36:00.944Z,5.10
2019-02-11T11:38:12.990Z,5.00
2019-02-11T11:40:25.325Z,5.00
2019-02-11T11:42:38.797Z,5.00
2019-02-11T11:44:57.954Z,5.00
2019-02-11T11:47:15.982Z,5.10
2019-02-11T11:49:26.372Z,5.30
2019-02-11T11:51:45.196Z,5.50
2019-02-11T11:53:59.578Z,5.70
2019-02-11T11:56:07.171Z,5.90
2019-02-11T11:58:14.425Z,6.00
2019-02-11T12:00:30.802Z,6.10
2019-02-11T12:06:25.965Z,5.90
2019-02-11T12:09:25.089Z,5.80
2019-02-11T12:45:29.657Z,7.30
2019-02-11T12:50:08.454Z,6.00
2019-02-11T12:52:19.005Z,5.60
2019-02-11T12:54:29.349Z,5.20
2019-02-11T12:56:43.789Z,5.00
2019-02-11T12:59:03.440Z,4.80
2019-02-11T13:01:12.054Z,4.90
2019-02-11T13:06:32.122Z,5.00
2019-02-11T13:12:01.862Z,5.20
2019-02-11T13:14:58.731Z,5.40
2019-02-11T13:17:35.149Z,5.40
2019-02-11T13:20:37.123Z,5.60
2019-02-11T13:23:26.796Z,5.70
2019-02-11T13:38:22.247Z,6.60
2019-02-11T13:40:26.699Z,7.00
2019-02-11T13:42:41.695Z,7.50
2019-02-11T13:44:52.726Z,7.80
2019-02-11T13:47:11.536Z,8.00
2019-02-11T13:49:25.866Z,8.00
2019-02-11T13:51:45.973Z,7.80
2019-02-11T13:54:10.447Z,7.70
2019-02-11T13:56:12.432Z,7.60
2019-02-11T13:58:19.925Z,7.40
2019-02-11T14:00:38.859Z,7.30
2019-02-11T14:03:06.629Z,7.20
2019-02-11T15:37:35.849Z,6.20
2019-02-11T15:40:06.535Z,6.30
2019-02-11T15:42:30.089Z,6.30
2019-02-11T15:47:23.186Z,6.50
2019-02-11T15:49:40.573Z,6.60
2019-02-11T15:51:51.018Z,6.70
2019-02-11T15:53:55.573Z,6.70
2019-02-11T15:56:07.470Z,6.60
2019-02-11T15:58:05.977Z,6.50
2019-02-11T16:00:24.582Z,6.50
2019-02-11T16:02:38.243Z,6.40
2019-02-11T16:05:02.088Z,6.40
2019-02-11T16:06:58.899Z,6.30
2019-02-11T16:09:41.656Z,6.20
2019-02-11T16:11:21.952Z,6.20
2019-02-11T16:13:52.226Z,6.20
2019-02-11T16:15:56.700Z,6.10
2019-02-11T16:18:33.749Z,6.10
2019-02-11T16:20:58.749Z,6.00
2019-02-11T16:23:16.809Z,6.00
2019-02-11T16:25:39.756Z,5.90
2019-02-11T16:27:58.067Z,5.80
2019-02-11T16:32:12.188Z,5.70
2019-02-11T16:34:16.530Z,5.60
2019-02-11T17:09:26.195Z,4.80
2019-02-11T17:11:37.093Z,4.80
2019-02-11T17:13:49.289Z,4.90
2019-02-11T17:15:55.059Z,5.00
2019-02-11T17:18:04.669Z,5.00
2019-02-11T17:20:20.233Z,5.10
2019-02-11T17:22:26.597Z,5.30
2019-02-11T17:24:35.680Z,5.30
2019-02-11T17:26:47.961Z,5.40
2019-02-11T17:29:03.398Z,5.50
2019-02-11T17:31:33.281Z,5.50
2019-02-11T17:33:56.191Z,5.50
2019-02-11T17:38:58.260Z,5.30
2019-02-11T17:41:08.680Z,5.20
2019-02-11T17:43:32.743Z,5.10
2019-02-11T17:45:42.082Z,5.20
2019-02-11T17:47:56.291Z,5.20
2019-02-11T17:50:17.367Z,5.20
2019-02-11T18:30:33.136Z,5.40
2019-02-11T18:32:47.590Z,5.40
2019-02-11T18:34:53.144Z,5.40
2019-02-11T18:37:51.886Z,5.40
2019-02-11T18:40:18.947Z,5.40
2019-02-11T18:43:09.641Z,5.30
2019-02-11T18:45:57.127Z,5.40
2019-02-11T18:48:43.675Z,5.40
2019-02-11T18:51:20.165Z,5.30
2019-02-11T18:53:24.408Z,5.30
2019-02-11T18:55:45.953Z,5.30
2019-02-11T18:57:56.055Z,5.30
2019-02-11T19:00:14.467Z,5.30
2019-02-11T19:02:26.872Z,5.30
2019-02-11T19:04:39.047Z,5.40
2019-02-11T19:06:47.346Z,5.40
2019-02-11T19:12:32.874Z,5.40
2019-02-11T19:18:42.250Z,5.50
2019-02-11T19:24:03.404Z,5.40
2019-02-11T19:26:10.884Z,5.30
2019-02-11T19:28:18.021Z,5.30
2019-02-11T19:30:22.881Z,5.20
2019-02-11T19:32:27.361Z,5.20
2019-02-11T19:34:34.964Z,5.10
2019-02-11T19:36:39.640Z,5.00
2019-02-11T19:39:18.505Z,5.00
2019-02-11T19:43:00.929Z,4.80
2019-02-11T19:44:50.635Z,4.70
2019-02-11T19:47:17.537Z,4.70
2019-02-11T19:49:34.228Z,4.70
2019-02-11T19:51:52.344Z,4.70
2019-02-11T19:53:58.627Z,4.80
2019-02-11T19:56:05.570Z,4.80
2019-02-11T19:58:13.252Z,4.90
2019-02-11T20:00:20.515Z,4.90
2019-02-11T20:02:27.710Z,4.90
2019-02-11T20:04:35.454Z,5.00
2019-02-11T20:06:42.552Z,5.00
2019-02-11T20:08:49.821Z,5.00
2019-02-11T20:10:54.516Z,5.00
2019-02-11T20:13:04.151Z,5.00
2019-02-11T20:15:16.467Z,5.00
2019-02-11T20:17:25.440Z,5.10
2019-02-11T20:19:37.788Z,5.10
2019-02-11T20:29:08.906Z,5.10
2019-02-11T20:38:36.622Z,5.00
2019-02-11T20:40:38.155Z,5.10
2019-02-11T20:42:55.516Z,5.10
2019-02-11T20:45:12.525Z,5.10
2019-02-11T20:47:33.586Z,5.10
2019-02-11T20:49:37.616Z,5.10
2019-02-11T20:51:47.559Z,5.10
2019-02-11T20:53:57.809Z,5.20
2019-02-11T20:56:05.003Z,5.20
2019-02-11T20:58:17.308Z,5.20
2019-02-11T21:00:31.585Z,5.20
2019-02-11T21:02:54.326Z,5.20
2019-02-11T21:05:15.377Z,5.20
2019-02-11T21:07:33.354Z,5.20
2019-02-11T21:09:39.638Z,5.20
2019-02-11T21:11:57.324Z,5.20
2019-02-11T21:14:10.043Z,5.20
2019-02-11T21:16:18.081Z,5.20
2019-02-11T21:18:25.295Z,5.20
2019-02-11T21:20:45.806Z,5.20
2019-02-11T21:23:03.422Z,5.20
2019-02-11T21:25:20.059Z,5.20
2019-02-11T21:27:52.845Z,5.20
2019-02-11T21:30:04.814Z,5.20
2019-02-11T21:32:15.092Z,5.10
2019-02-11T21:34:33.969Z,5.10
2019-02-11T21:36:59.442Z,5.10
2019-02-11T21:39:18.788Z,5.10
2019-02-11T21:41:38.150Z,5.10
2019-02-11T21:43:48.388Z,5.10
2019-02-11T21:46:17.652Z,5.10
2019-02-11T21:48:37.595Z,5.10
2019-02-11T21:50:55.213Z,5.00
2019-02-11T21:53:06.252Z,5.00
2019-02-11T21:55:24.227Z,5.00
2019-02-11T21:57:44.273Z,5.00
2019-02-11T22:00:08.639Z,5.00
2019-02-11T22:02:24.983Z,5.00
2019-02-11T22:04:49.041Z,4.90
2019-02-11T22:07:20.722Z,4.90
2019-02-11T22:09:35.539Z,4.80
2019-02-11T22:11:51.879Z,4.70
2019-02-11T22:13:59.501Z,4.60
2019-02-11T22:16:16.885Z,4.50
2019-02-11T22:18:34.886Z,4.50
2019-02-11T22:20:54.005Z,4.50
2019-02-11T22:23:18.976Z,4.50
2019-02-11T22:25:21.273Z,4.50
2019-02-11T22:27:48.243Z,4.60
2019-02-11T22:30:01.130Z,4.60
2019-02-11T22:32:26.388Z,4.60
2019-02-11T22:34:38.201Z,4.70
2019-02-11T22:36:53.969Z,4.70
2019-02-11T22:39:30.196Z,4.80
2019-02-11T22:42:05.236Z,4.80
2019-02-11T22:44:10.788Z,4.80
2019-02-11T22:46:31.897Z,4.90
2019-02-11T22:48:43.530Z,4.90
2019-02-11T22:50:59.053Z,4.90
2019-02-11T22:53:27.774Z,4.90
2019-02-11T22:55:40.173Z,4.90
2019-02-11T22:58:02.791Z,4.90
2019-02-11T23:00:25.291Z,5.00
2019-02-11T23:02:34.730Z,5.00
2019-02-11T23:04:59.855Z,5.00
2019-02-11T23:07:18.133Z,5.00
2019-02-11T23:09:35.173Z,4.90
2019-02-11T23:12:00.096Z,5.00
2019-02-11T23:14:30.675Z,5.00
2019-02-11T23:16:50.389Z,5.00
2019-02-11T23:19:23.375Z,5.00
2019-02-11T23:21:44.400Z,5.10
2019-02-11T23:24:00.001Z,5.10
2019-02-11T23:26:17.938Z,5.10
2019-02-11T23:28:27.030Z,5.10
2019-02-11T23:30:43.000Z,5.00
2019-02-11T23:32:51.423Z,4.90
2019-02-11T23:35:00.768Z,4.80
2019-02-11T23:37:14.368Z,4.80
2019-02-11T23:39:34.011Z,4.80
2019-02-11T23:41:42.127Z,4.80
2019-02-11T23:43:51.527Z,4.70
2019-02-11T23:46:06.041Z,4.70
2019-02-11T23:48:08.847Z,4.70
2019-02-11T23:50:18.869Z,4.70
2019-02-11T23:52:28.859Z,4.60
2019-02-11T23:54:41.402Z,4.60
2019-02-11T23:56:55.245Z,4.60
2019-02-11T23:59:14.703Z,4.50
